Time;durP1;ratioP1;P1;durP2;ratioP2;P2;SDS_P1;SDS_P2;PMS_P1;PMS_P2;Temp;Humidity;BMP_temperature;BMP_pressure;BME280_temperature;BME280_humidity;BME280_pressure;Samples;Min_cycle;Max_cycle;Signal;HPM_P1;HPM_P2
2022/06/18 00:01:33;;;;;;;;;;;;;;;22.09;77.93;97177.34;607932;233;66981;-73
2022/06/18 00:04:03;;;;;;;;;;;;;;;22.09;77.96;97174.66;607821;233;64882;-73
2022/06/18 00:06:32;;;;;;;;;;;;;;;22.10;77.92;97173.61;607867;233;67002;-73
2022/06/18 00:09:01;;;;;;;;;;;;;;;22.09;77.95;97177.34;607854;233;66921;-73
2022/06/18 00:14:14;;;;;;;;;;;;;;;22.09;77.94;97174.66;607656;233;68320;-73
2022/06/18 00:16:41;;;;;;;;;;;;;;;22.09;77.93;97167.42;607968;233;66710;-74
2022/06/18 00:19:09;;;;;;;;;;;;;;;22.08;77.97;97168.52;607874;233;64850;-73
2022/06/18 00:21:37;;;;;;;;;;;;;;;22.08;77.93;97171.19;607824;233;67263;-73
2022/06/18 00:24:06;;;;;;;;;;;;;;;22.08;77.88;97165.04;607941;233;67286;-73
2022/06/18 00:26:33;;;;;;;;;;;;;;;22.09;77.99;97158.60;607501;233;65173;-73
2022/06/18 00:29:01;;;;;;;;;;;;;;;22.09;78.02;97169.31;607416;233;64873;-73
2022/06/18 00:31:30;;;;;;;;;;;;;;;22.07;78.06;97166.92;607984;233;64834;-73
2022/06/18 00:33:57;;;;;;;;;;;;;;;22.09;78.06;97163.95;607930;233;62643;-73
2022/06/18 00:36:26;;;;;;;;;;;;;;;22.08;78.05;97165.84;607955;233;67028;-73
2022/06/18 00:38:54;;;;;;;;;;;;;;;22.08;78.06;97168.52;607976;233;66916;-73
2022/06/18 00:41:23;;;;;;;;;;;;;;;22.08;78.08;97168.52;607965;233;65129;-73
2022/06/18 00:43:53;;;;;;;;;;;;;;;22.09;78.10;97166.63;607909;233;64566;-73
2022/06/18 00:46:25;;;;;;;;;;;;;;;22.08;78.09;97160.48;607965;233;64841;-73
2022/06/18 00:49:03;;;;;;;;;;;;;;;22.09;78.10;97162.08;607936;233;65159;-74
2022/06/18 00:51:38;;;;;;;;;;;;;;;22.09;78.08;97163.95;607989;233;67413;-74
2022/06/18 00:54:07;;;;;;;;;;;;;;;22.09;78.02;97163.95;607988;233;66927;-74
2022/06/18 00:56:36;;;;;;;;;;;;;;;22.08;78.00;97162.37;607946;233;64998;-74
2022/06/18 00:59:05;;;;;;;;;;;;;;;22.08;77.92;97155.12;607896;233;67257;-74
2022/06/18 01:01:35;;;;;;;;;;;;;;;22.09;77.88;97164.75;607652;233;67352;-74
2022/06/18 01:04:04;;;;;;;;;;;;;;;22.08;77.80;97159.69;607987;233;65155;-74
2022/06/18 01:06:33;;;;;;;;;;;;;;;22.09;77.80;97158.60;607992;232;66757;-74
2022/06/18 01:09:02;;;;;;;;;;;;;;;22.09;77.84;97158.60;607978;233;66677;-74
2022/06/18 01:11:32;;;;;;;;;;;;;;;22.09;77.87;97153.25;607953;233;65628;-74
2022/06/18 01:14:01;;;;;;;;;;;;;;;22.09;77.84;97153.25;607948;233;67090;-74
2022/06/18 01:16:30;;;;;;;;;;;;;;;22.09;77.83;97153.25;608000;233;66925;-74
2022/06/18 01:18:58;;;;;;;;;;;;;;;22.09;77.85;97156.72;603969;233;64924;-74
2022/06/18 01:21:28;;;;;;;;;;;;;;;22.09;77.80;97153.25;601750;236;67002;-74
2022/06/18 01:24:03;;;;;;;;;;;;;;;22.08;77.78;97146.31;601734;236;63997;-74
2022/06/18 01:26:32;;;;;;;;;;;;;;;22.08;77.76;97141.75;601774;233;64970;-74
2022/06/18 01:29:00;;;;;;;;;;;;;;;22.09;77.77;97142.55;601756;236;64072;-74
2022/06/18 01:31:28;;;;;;;;;;;;;;;22.09;77.80;97142.55;601758;236;66574;-74
2022/06/18 01:33:57;;;;;;;;;;;;;;;22.09;77.83;97142.55;601727;236;65776;-74
2022/06/18 01:36:27;;;;;;;;;;;;;;;22.09;77.86;97142.55;601709;236;67467;-74
2022/06/18 01:38:55;;;;;;;;;;;;;;;22.08;77.87;97140.95;601714;236;66973;-74
2022/06/18 01:44:16;;;;;;;;;;;;;;;22.08;77.85;97144.42;601782;235;44224;-74
2022/06/18 01:46:45;;;;;;;;;;;;;;;22.08;77.86;97151.66;601700;236;67374;-73
2022/06/18 01:49:16;;;;;;;;;;;;;;;22.08;77.94;97152.45;601753;236;62896;-74
2022/06/18 01:51:47;;;;;;;;;;;;;;;22.08;78.03;97146.31;601712;236;64706;-74
2022/06/18 01:54:20;;;;;;;;;;;;;;;22.08;78.01;97152.45;601799;236;45543;-73
2022/06/18 01:56:49;;;;;;;;;;;;;;;22.07;78.02;97153.55;601723;236;65977;-73
2022/06/18 01:59:20;;;;;;;;;;;;;;;22.07;78.08;97155.39;601727;236;64150;-73
2022/06/18 02:01:49;;;;;;;;;;;;;;;22.08;78.04;97157.02;601626;235;64950;-73
2022/06/18 02:04:19;;;;;;;;;;;;;;;22.08;77.95;97162.37;601714;236;63047;-73
2022/06/18 02:06:47;;;;;;;;;;;;;;;22.07;77.95;97161.57;601727;236;67510;-74
2022/06/18 02:09:19;;;;;;;;;;;;;;;22.07;77.99;97163.42;601718;236;66703;-74
2022/06/18 02:11:47;;;;;;;;;;;;;;;22.08;77.96;97173.07;601570;236;62730;-74
2022/06/18 02:14:15;;;;;;;;;;;;;;;22.08;77.99;97171.19;601735;236;64851;-74
2022/06/18 02:16:44;;;;;;;;;;;;;;;22.08;77.93;97178.42;601710;236;67149;-74
2022/06/18 02:19:15;;;;;;;;;;;;;;;22.08;78.02;97186.45;606342;233;62368;-74
2022/06/18 02:21:44;;;;;;;;;;;;;;;22.08;78.02;97191.80;607997;233;66759;-74
2022/06/18 02:24:11;;;;;;;;;;;;;;;22.08;78.07;97191.80;607966;233;64601;-74
2022/06/18 02:26:42;;;;;;;;;;;;;;;22.07;78.06;97192.86;608007;233;47549;-74
2022/06/18 02:29:11;;;;;;;;;;;;;;;22.08;78.18;97191.80;607954;233;64601;-74
2022/06/18 02:31:45;;;;;;;;;;;;;;;22.08;78.16;97210.54;607897;233;66970;-74
2022/06/18 02:34:10;;;;;;;;;;;;;;;22.08;78.18;97207.86;607911;233;65083;-74
2022/06/18 02:36:40;;;;;;;;;;;;;;;22.07;78.20;97216.95;607958;233;67005;-74
2022/06/18 02:39:10;;;;;;;;;;;;;;;22.08;78.24;97211.34;607964;233;66661;-74
2022/06/18 02:41:40;;;;;;;;;;;;;;;22.07;78.23;97200.89;607962;233;65184;-74
2022/06/18 02:44:09;;;;;;;;;;;;;;;22.07;78.28;97209.74;607969;233;66996;-74
2022/06/18 02:46:37;;;;;;;;;;;;;;;22.08;78.25;97205.19;607971;233;66560;-74
2022/06/18 02:49:05;;;;;;;;;;;;;;;22.07;78.17;97206.24;607994;233;65277;-74
2022/06/18 02:51:37;;;;;;;;;;;;;;;22.07;78.16;97209.74;607945;233;64177;-69
2022/06/18 02:54:05;;;;;;;;;;;;;;;22.07;78.12;97207.06;607949;233;66926;-69
2022/06/18 02:56:33;;;;;;;;;;;;;;;22.07;78.13;97204.39;607974;233;65588;-69
2022/06/18 02:59:00;;;;;;;;;;;;;;;22.08;78.12;97202.52;607972;233;66775;-69
2022/06/18 03:01:29;;;;;;;;;;;;;;;22.07;78.05;97209.74;607942;233;66656;-69
2022/06/18 03:03:58;;;;;;;;;;;;;;;22.08;78.10;97213.22;607943;233;64878;-69
2022/06/18 03:06:28;;;;;;;;;;;;;;;22.08;78.10;97215.89;608003;232;43310;-70
2022/06/18 03:08:57;;;;;;;;;;;;;;;22.08;78.14;97205.19;607957;233;66797;-74
2022/06/18 03:14:13;;;;;;;;;;;;;;;22.07;78.22;97200.89;607968;233;64118;-74
2022/06/18 03:16:41;;;;;;;;;;;;;;;22.07;78.16;97199.04;607948;233;64783;-74
2022/06/18 03:19:11;;;;;;;;;;;;;;;22.06;78.14;97197.42;607893;233;65077;-73
2022/06/18 03:21:43;;;;;;;;;;;;;;;22.07;78.17;97203.56;607872;233;72603;-74
2022/06/18 03:24:11;;;;;;;;;;;;;;;22.07;78.09;97206.24;607960;233;64440;-74
2022/06/18 03:26:39;;;;;;;;;;;;;;;22.06;78.22;97193.95;607942;233;62827;-74
2022/06/18 03:29:09;;;;;;;;;;;;;;;22.07;78.25;97195.53;607991;232;43313;-75
2022/06/18 03:31:37;;;;;;;;;;;;;;;22.07;78.21;97206.24;607974;233;66682;-74
2022/06/18 03:34:05;;;;;;;;;;;;;;;22.07;78.21;97208.92;607950;233;63015;-74
2022/06/18 03:36:33;;;;;;;;;;;;;;;22.07;78.15;97208.92;607979;233;66766;-74
2022/06/18 03:39:00;;;;;;;;;;;;;;;22.06;78.18;97208.12;607962;233;66670;-74
2022/06/18 03:41:28;;;;;;;;;;;;;;;22.06;78.16;97208.12;607915;233;65767;-74
2022/06/18 03:43:56;;;;;;;;;;;;;;;22.06;78.17;97202.77;607952;233;64562;-74
2022/06/18 03:46:24;;;;;;;;;;;;;;;22.07;78.17;97198.21;607970;233;67125;-74
2022/06/18 03:48:57;;;;;;;;;;;;;;;22.07;78.20;97206.24;607942;233;62784;-69
2022/06/18 03:51:27;;;;;;;;;;;;;;;22.07;78.12;97209.74;607985;233;43628;-69
2022/06/18 03:53:55;;;;;;;;;;;;;;;22.07;78.13;97206.24;607939;233;66658;-69
2022/06/18 03:56:24;;;;;;;;;;;;;;;22.06;78.18;97201.97;607952;233;65135;-75
2022/06/18 03:58:52;;;;;;;;;;;;;;;22.07;78.22;97208.92;607990;233;67172;-74
2022/06/18 04:01:25;;;;;;;;;;;;;;;22.06;78.15;97212.68;608014;233;66358;-74
2022/06/18 04:03:53;;;;;;;;;;;;;;;22.07;78.19;97198.21;607971;233;65670;-74
2022/06/18 04:06:23;;;;;;;;;;;;;;;22.06;78.21;97199.30;607895;233;47640;-74
2022/06/18 04:08:52;;;;;;;;;;;;;;;22.07;78.24;97208.92;607960;233;64444;-74
2022/06/18 04:11:21;;;;;;;;;;;;;;;22.07;78.26;97214.27;607993;233;65584;-74
2022/06/18 04:13:49;;;;;;;;;;;;;;;22.08;78.25;97213.22;607971;233;65421;-74
2022/06/18 04:16:34;;;;;;;;;;;;;;;22.06;78.19;97218.03;608092;233;41464;-73
2022/06/18 04:19:04;;;;;;;;;;;;;;;22.05;78.20;97222.59;603753;233;41989;-73
2022/06/18 04:21:31;;;;;;;;;;;;;;;22.06;78.27;97224.18;601769;236;66798;-73
2022/06/18 04:23:59;;;;;;;;;;;;;;;22.06;78.36;97224.18;601744;236;66665;-73
2022/06/18 04:26:27;;;;;;;;;;;;;;;22.06;78.39;97223.39;601787;236;62447;-73
2022/06/18 04:28:55;;;;;;;;;;;;;;;22.06;78.34;97234.09;601758;236;66638;-73
2022/06/18 04:31:23;;;;;;;;;;;;;;;22.05;78.42;97227.94;601771;236;66788;-73
2022/06/18 04:33:52;;;;;;;;;;;;;;;22.06;78.42;97229.53;601749;236;64950;-68
2022/06/18 04:36:31;;;;;;;;;;;;;;;22.06;78.49;97228.73;601790;236;44401;-69
2022/06/18 04:39:00;;;;;;;;;;;;;;;22.06;78.48;97228.73;599920;233;64458;-69
2022/06/18 04:41:36;;;;;;;;;;;;;;;22.06;78.53;97232.21;597238;236;45020;-68
2022/06/18 04:44:05;;;;;;;;;;;;;;;22.05;78.50;97227.94;601670;235;45050;-69
2022/06/18 04:46:33;;;;;;;;;;;;;;;22.06;78.50;97234.09;601761;236;64258;-69
2022/06/18 04:49:01;;;;;;;;;;;;;;;22.06;78.61;97229.53;601762;236;62774;-68
2022/06/18 04:51:29;;;;;;;;;;;;;;;22.06;78.59;97226.06;601776;236;67248;-69
2022/06/18 04:53:57;;;;;;;;;;;;;;;22.06;78.69;97228.73;601755;236;64185;-68
2022/06/18 04:56:24;;;;;;;;;;;;;;;22.06;78.81;97242.12;601725;236;65176;-68
2022/06/18 04:58:52;;;;;;;;;;;;;;;22.06;78.87;97248.27;601753;236;65439;-68
2022/06/18 05:01:21;;;;;;;;;;;;;;;22.06;78.93;97248.27;601723;236;67351;-69
2022/06/18 05:03:57;;;;;;;;;;;;;;;22.06;78.96;97247.47;600602;236;44076;-69
2022/06/18 05:06:29;;;;;;;;;;;;;;;22.05;78.89;97249.35;601688;235;46299;-69
2022/06/18 05:09:07;;;;;;;;;;;;;;;22.05;78.90;97245.88;601809;235;48424;-69
2022/06/18 05:11:40;;;;;;;;;;;;;;;22.05;78.88;97254.70;599428;235;44093;-69
2022/06/18 05:14:16;;;;;;;;;;;;;;;22.05;78.84;97254.70;601595;236;49217;-70
2022/06/18 05:16:48;;;;;;;;;;;;;;;22.05;78.89;97257.37;601806;236;43231;-69
2022/06/18 05:19:24;;;;;;;;;;;;;;;22.05;78.99;97259.27;601712;232;65571;-69
2022/06/18 05:21:53;;;;;;;;;;;;;;;22.06;79.01;97260.85;601771;236;67194;-68
2022/06/18 05:24:20;;;;;;;;;;;;;;;22.06;79.01;97266.20;601751;236;64541;-68
2022/06/18 05:26:50;;;;;;;;;;;;;;;22.05;79.07;97269.97;601716;236;65836;-68
2022/06/18 05:29:18;;;;;;;;;;;;;;;22.05;79.04;97269.97;601714;236;66353;-68
2022/06/18 05:31:45;;;;;;;;;;;;;;;22.05;79.03;97278.80;601718;236;66420;-69
2022/06/18 05:34:14;;;;;;;;;;;;;;;22.05;79.02;97280.67;601697;236;63029;-69
2022/06/18 05:36:42;;;;;;;;;;;;;;;22.04;79.08;97277.17;601774;236;67103;-68
2022/06/18 05:39:11;;;;;;;;;;;;;;;22.05;79.07;97278.00;601680;236;66865;-69
2022/06/18 05:41:39;;;;;;;;;;;;;;;22.04;79.16;97277.17;601684;235;64837;-69
2022/06/18 05:44:07;;;;;;;;;;;;;;;22.05;79.21;97278.80;601689;236;63911;-69
2022/06/18 05:46:35;;;;;;;;;;;;;;;22.05;79.17;97286.02;601677;236;66751;-69
2022/06/18 05:49:03;;;;;;;;;;;;;;;22.05;79.21;97286.02;601720;236;66055;-68
2022/06/18 05:51:30;;;;;;;;;;;;;;;22.04;79.30;97285.20;601691;236;67232;-69
2022/06/18 05:53:58;;;;;;;;;;;;;;;22.04;79.40;97285.20;601724;236;64397;-69
2022/06/18 05:56:30;;;;;;;;;;;;;;;22.05;79.44;97288.70;596359;236;45307;-73
2022/06/18 05:59:05;;;;;;;;;;;;;;;22.04;79.43;97289.75;601746;236;48105;-74
2022/06/18 06:01:35;;;;;;;;;;;;;;;22.04;79.49;97287.87;601710;235;45080;-74
2022/06/18 06:04:04;;;;;;;;;;;;;;;22.04;79.51;97292.43;601740;236;65635;-70
2022/06/18 06:06:33;;;;;;;;;;;;;;;22.04;79.42;97279.05;601709;236;69004;-70
2022/06/18 06:09:01;;;;;;;;;;;;;;;22.04;79.36;97281.72;601702;236;64147;-70
2022/06/18 06:11:32;;;;;;;;;;;;;;;22.04;79.33;97284.41;601682;235;62837;-70
2022/06/18 06:14:01;;;;;;;;;;;;;;;22.03;79.99;97285.48;601692;236;48530;-69
2022/06/18 06:16:30;;;;;;;;;;;;;;;22.01;78.69;97284.95;601759;236;67046;-69
2022/06/18 06:18:59;;;;;;;;;;;;;;;22.04;77.66;97293.23;601538;233;47080;-69
2022/06/18 06:21:27;;;;;;;;;;;;;;;22.06;77.89;97287.62;601725;236;64424;-69
2022/06/18 06:23:54;;;;;;;;;;;;;;;22.06;78.49;97293.77;601678;236;64367;-69
2022/06/18 06:26:23;;;;;;;;;;;;;;;22.06;79.18;97293.77;601706;236;62713;-69
2022/06/18 06:28:51;;;;;;;;;;;;;;;22.07;79.58;97294.56;601674;236;64612;-69
2022/06/18 06:31:18;;;;;;;;;;;;;;;22.07;79.79;97299.91;601768;236;64570;-69
2022/06/18 06:33:46;;;;;;;;;;;;;;;22.07;79.85;97299.91;601678;236;63654;-69
2022/06/18 06:36:13;;;;;;;;;;;;;;;22.07;79.94;97298.06;601685;236;64943;-74
2022/06/18 06:38:41;;;;;;;;;;;;;;;22.07;80.04;97292.71;601625;235;65115;-74
2022/06/18 06:41:13;;;;;;;;;;;;;;;22.08;80.05;97290.83;601675;236;62836;-74
2022/06/18 06:43:40;;;;;;;;;;;;;;;22.08;80.09;97298.86;601734;236;64842;-74
2022/06/18 06:46:09;;;;;;;;;;;;;;;22.08;80.03;97302.33;599936;235;64947;-74
2022/06/18 06:48:37;;;;;;;;;;;;;;;22.08;80.06;97296.98;601631;236;62782;-74
2022/06/18 06:51:06;;;;;;;;;;;;;;;22.10;80.00;97310.91;601636;236;64828;-75
2022/06/18 06:53:33;;;;;;;;;;;;;;;22.09;79.91;97313.84;601633;236;64761;-74
2022/06/18 06:58:47;;;;;;;;;;;;;;;22.10;79.80;97307.43;601727;236;66755;-74
2022/06/18 07:01:14;;;;;;;;;;;;;;;22.10;79.72;97310.11;601682;236;66881;-73
2022/06/18 07:03:42;;;;;;;;;;;;;;;22.10;79.63;97310.91;601607;236;65124;-73
2022/06/18 07:06:10;;;;;;;;;;;;;;;22.12;79.62;97307.94;601657;236;67278;-73
2022/06/18 07:08:37;;;;;;;;;;;;;;;22.12;79.52;97302.58;601678;236;66836;-73
2022/06/18 07:11:05;;;;;;;;;;;;;;;22.12;79.49;97307.94;601718;236;65084;-73
2022/06/18 07:13:32;;;;;;;;;;;;;;;22.12;79.40;97308.73;601669;236;67047;-73
2022/06/18 07:16:00;;;;;;;;;;;;;;;22.12;79.38;97311.41;601647;236;66816;-73
2022/06/18 07:18:31;;;;;;;;;;;;;;;22.12;79.34;97306.06;601617;232;64846;-73
2022/06/18 07:20:58;;;;;;;;;;;;;;;22.13;79.26;97306.89;601699;236;67012;-74
2022/06/18 07:23:26;;;;;;;;;;;;;;;22.13;79.20;97312.23;601741;236;66990;-73
2022/06/18 07:25:53;;;;;;;;;;;;;;;22.13;79.23;97312.23;601652;236;64879;-73
2022/06/18 07:28:21;;;;;;;;;;;;;;;22.13;79.15;97310.36;601657;236;67095;-73
2022/06/18 07:30:49;;;;;;;;;;;;;;;22.13;79.14;97320.27;601696;236;67668;-73
2022/06/18 07:33:21;;;;;;;;;;;;;;;22.13;79.09;97326.42;601705;236;64912;-73
2022/06/18 07:35:50;;;;;;;;;;;;;;;22.14;79.05;97316.50;601699;236;65065;-74
2022/06/18 07:38:18;;;;;;;;;;;;;;;22.14;79.00;97317.30;601769;236;66845;-74
2022/06/18 07:40:47;;;;;;;;;;;;;;;22.15;78.96;97320.77;601704;236;64900;-74
2022/06/18 07:43:22;;;;;;;;;;;;;;;22.14;78.94;97321.86;601680;236;64832;-73
2022/06/18 07:45:50;;;;;;;;;;;;;;;22.14;78.90;97322.66;601683;235;66700;-74
2022/06/18 07:48:17;;;;;;;;;;;;;;;22.14;78.85;97322.66;601691;236;64830;-73
2022/06/18 07:50:46;;;;;;;;;;;;;;;22.16;78.83;97325.08;601747;236;64666;-73
2022/06/18 07:53:17;;;;;;;;;;;;;;;22.15;78.83;97323.45;601684;236;67356;-73
2022/06/18 07:55:45;;;;;;;;;;;;;;;22.15;78.79;97329.63;601663;236;64858;-73
2022/06/18 07:58:12;;;;;;;;;;;;;;;22.15;78.79;97329.63;601705;236;67041;-73
2022/06/18 08:00:42;;;;;;;;;;;;;;;22.15;78.81;97329.63;601704;236;66900;-73
2022/06/18 08:03:11;;;;;;;;;;;;;;;22.16;78.76;97322.40;601746;236;62934;-73
2022/06/18 08:05:39;;;;;;;;;;;;;;;22.16;78.78;97333.11;601751;236;64852;-73
2022/06/18 08:08:07;;;;;;;;;;;;;;;22.16;78.72;97330.43;601655;236;66882;-73
2022/06/18 08:10:36;;;;;;;;;;;;;;;22.16;78.73;97322.40;601720;236;63718;-73
2022/06/18 08:13:04;;;;;;;;;;;;;;;22.16;78.71;97325.08;601671;236;66844;-73
2022/06/18 08:15:33;;;;;;;;;;;;;;;22.17;78.69;97326.67;601700;236;66862;-73
2022/06/18 08:18:00;;;;;;;;;;;;;;;22.16;78.72;97325.87;601698;233;62866;-73
2022/06/18 08:20:29;;;;;;;;;;;;;;;22.17;78.75;97329.34;601705;236;67118;-73
2022/06/18 08:22:59;;;;;;;;;;;;;;;22.16;78.78;97331.22;601670;236;66895;-73
2022/06/18 08:25:27;;;;;;;;;;;;;;;22.17;78.77;97332.02;601681;236;64868;-73
2022/06/18 08:27:56;;;;;;;;;;;;;;;22.17;78.75;97329.34;601705;236;67049;-74
2022/06/18 08:30:25;;;;;;;;;;;;;;;22.17;78.78;97326.67;601729;236;66985;-74
2022/06/18 08:32:52;;;;;;;;;;;;;;;22.16;78.78;97320.52;601689;236;65078;-73
2022/06/18 08:35:20;;;;;;;;;;;;;;;22.16;78.76;97328.55;601685;235;67112;-74
2022/06/18 08:37:47;;;;;;;;;;;;;;;22.16;78.72;97333.11;601694;236;66880;-73
2022/06/18 08:40:35;;;;;;;;;;;;;;;22.18;78.67;97331.00;601701;236;64883;-73
2022/06/18 08:43:07;;;;;;;;;;;;;;;22.17;78.67;97335.49;600460;236;67139;-75
2022/06/18 08:45:36;;;;;;;;;;;;;;;22.18;78.60;97333.67;601599;236;64872;-75
2022/06/18 08:48:14;;;;;;;;;;;;;;;22.17;78.62;97332.81;601426;236;62789;-73
2022/06/18 08:50:46;;;;;;;;;;;;;;;22.17;78.66;97330.14;601601;236;67033;-74
2022/06/18 08:53:16;;;;;;;;;;;;;;;22.19;78.62;97337.15;601501;235;64768;-74
2022/06/18 08:56:00;;;;;;;;;;;;;;;22.18;78.65;97331.00;601655;236;64993;-74
2022/06/18 08:58:38;;;;;;;;;;;;;;;22.19;78.59;97323.77;601551;236;68087;-74
2022/06/18 09:01:10;;;;;;;;;;;;;;;22.18;78.60;97320.29;601537;235;66612;-74
2022/06/18 09:03:42;;;;;;;;;;;;;;;22.17;78.66;97316.76;601741;236;61755;-74
2022/06/18 09:06:26;;;;;;;;;;;;;;;22.19;78.59;97318.41;601370;235;67145;-74
2022/06/18 09:08:55;;;;;;;;;;;;;;;22.17;78.63;97319.44;601670;236;65212;-74
2022/06/18 09:11:24;;;;;;;;;;;;;;;22.19;78.62;97324.56;601615;236;64932;-74
2022/06/18 09:13:57;;;;;;;;;;;;;;;22.17;78.62;97322.11;601635;236;65089;-74
2022/06/18 09:16:23;;;;;;;;;;;;;;;22.18;78.61;97317.61;601538;236;64791;-74
2022/06/18 09:18:55;;;;;;;;;;;;;;;22.18;78.60;97320.29;601636;233;65246;-73
2022/06/18 09:21:24;;;;;;;;;;;;;;;22.19;78.62;97321.88;601679;236;67070;-73
2022/06/18 09:23:59;;;;;;;;;;;;;;;22.19;78.61;97316.53;601617;236;66601;-74
2022/06/18 09:26:28;;;;;;;;;;;;;;;22.19;78.58;97319.20;601726;236;62797;-74
2022/06/18 09:28:57;;;;;;;;;;;;;;;22.19;78.60;97321.88;601330;236;64474;-74
2022/06/18 09:31:37;;;;;;;;;;;;;;;22.19;78.60;97319.20;601702;236;64496;-74
2022/06/18 09:34:06;;;;;;;;;;;;;;;22.18;78.57;97317.61;600898;236;64876;-73
2022/06/18 09:36:41;;;;;;;;;;;;;;;22.19;78.58;97324.56;601637;236;64925;-73
2022/06/18 09:39:11;;;;;;;;;;;;;;;22.20;78.61;97325.36;601597;235;64672;-75
2022/06/18 09:41:40;;;;;;;;;;;;;;;22.19;78.63;97326.44;601638;236;66040;-76
2022/06/18 09:44:21;;;;;;;;;;;;;;;22.19;78.61;97335.27;600174;235;66841;-75
2022/06/18 09:46:53;;;;;;;;;;;;;;;22.19;78.63;97332.59;601544;235;66704;-75
2022/06/18 09:49:20;;;;;;;;;;;;;;;22.19;78.65;97335.27;601675;236;62804;-75
2022/06/18 09:51:56;;;;;;;;;;;;;;;22.19;78.69;97335.27;601699;235;67076;-75
2022/06/18 09:54:23;;;;;;;;;;;;;;;22.19;78.63;97337.95;601611;235;67774;-74
2022/06/18 09:56:52;;;;;;;;;;;;;;;22.19;78.65;97343.30;601677;236;64859;-74
2022/06/18 09:59:21;;;;;;;;;;;;;;;22.19;78.63;97342.50;601665;235;67190;-74
2022/06/18 10:01:52;;;;;;;;;;;;;;;22.19;78.70;97337.95;601712;236;66939;-74
2022/06/18 10:07:13;;;;;;;;;;;;;;;22.20;78.69;97331.51;601535;235;64832;-73
2022/06/18 10:09:42;;;;;;;;;;;;;;;22.20;78.70;97341.42;601666;236;67114;-73
2022/06/18 10:12:14;;;;;;;;;;;;;;;22.19;78.75;97348.66;601695;236;64871;-74
2022/06/18 10:14:42;;;;;;;;;;;;;;;22.20;78.72;97342.22;601652;236;67153;-73
2022/06/18 10:17:13;;;;;;;;;;;;;;;22.20;78.74;97336.86;601679;236;64546;-73
2022/06/18 10:19:46;;;;;;;;;;;;;;;22.20;78.76;97338.74;601607;233;62824;-73
2022/06/18 10:22:22;;;;;;;;;;;;;;;22.19;78.75;97335.27;601694;236;64923;-73
2022/06/18 10:24:51;;;;;;;;;;;;;;;22.20;78.82;97328.83;601652;235;65328;-74
2022/06/18 10:27:20;;;;;;;;;;;;;;;22.21;78.76;97338.48;601697;235;64962;-74
2022/06/18 10:29:58;;;;;;;;;;;;;;;22.21;78.76;97337.66;601560;236;67118;-73
2022/06/18 10:32:30;;;;;;;;;;;;;;;22.20;78.71;97339.54;601701;236;64598;-74
2022/06/18 10:34:59;;;;;;;;;;;;;;;22.20;78.73;97334.19;601492;235;64967;-73
2022/06/18 10:37:31;;;;;;;;;;;;;;;22.21;78.77;97334.98;601608;235;67220;-73
2022/06/18 10:40:06;;;;;;;;;;;;;;;22.21;78.69;97327.78;601400;235;66986;-73
2022/06/18 10:42:41;;;;;;;;;;;;;;;22.21;78.74;97333.13;601695;236;65415;-68
2022/06/18 10:45:10;;;;;;;;;;;;;;;22.21;78.67;97330.45;601506;235;66817;-70
2022/06/18 10:47:39;;;;;;;;;;;;;;;22.20;78.66;97331.51;601593;236;66949;-70
2022/06/18 10:50:08;;;;;;;;;;;;;;;22.21;78.68;97325.10;601712;236;64911;-70
2022/06/18 10:52:36;;;;;;;;;;;;;;;22.22;78.68;97325.89;601657;236;65279;-70
2022/06/18 10:55:10;;;;;;;;;;;;;;;22.22;78.67;97323.22;601683;236;66954;-69
2022/06/18 10:57:38;;;;;;;;;;;;;;;22.22;78.72;97328.58;601332;235;62917;-70
2022/06/18 11:00:25;;;;;;;;;;;;;;;22.22;78.70;97331.25;601568;236;65881;-70
2022/06/18 11:02:54;;;;;;;;;;;;;;;22.22;78.66;97342.75;601565;236;67030;-70
2022/06/18 11:05:25;;;;;;;;;;;;;;;22.22;78.67;97337.41;601680;236;64835;-70
2022/06/18 11:07:53;;;;;;;;;;;;;;;22.22;78.64;97328.58;601634;235;64864;-69
2022/06/18 11:10:22;;;;;;;;;;;;;;;22.22;78.66;97332.05;601665;236;64975;-69
2022/06/18 11:12:54;;;;;;;;;;;;;;;22.22;78.66;97334.72;601691;236;62883;-69
2022/06/18 11:15:23;;;;;;;;;;;;;;;22.23;78.69;97338.20;601639;236;67165;-69
2022/06/18 11:17:51;;;;;;;;;;;;;;;22.22;78.65;97348.11;601647;233;66990;-69
2022/06/18 11:20:22;;;;;;;;;;;;;;;22.23;78.69;97351.58;601697;236;64854;-69
2022/06/18 11:22:54;;;;;;;;;;;;;;;22.23;78.68;97341.67;601690;236;67524;-69
2022/06/18 11:25:22;;;;;;;;;;;;;;;22.23;78.67;97340.87;601602;236;64824;-69
2022/06/18 11:27:50;;;;;;;;;;;;;;;22.22;78.65;97334.72;601646;236;62831;-69
2022/06/18 11:30:19;;;;;;;;;;;;;;;22.22;78.65;97324.02;601667;236;64740;-69
2022/06/18 11:32:48;;;;;;;;;;;;;;;22.23;78.64;97333.64;601590;235;64551;-69
2022/06/18 11:35:17;;;;;;;;;;;;;;;22.22;78.63;97334.72;601687;236;62912;-69
2022/06/18 11:37:46;;;;;;;;;;;;;;;22.23;78.52;97330.16;601671;236;64984;-69
2022/06/18 11:40:16;;;;;;;;;;;;;;;22.23;78.50;97341.67;601509;236;65130;-69
2022/06/18 11:42:51;;;;;;;;;;;;;;;22.23;78.50;97333.64;601681;236;62656;-69
2022/06/18 11:45:23;;;;;;;;;;;;;;;22.24;78.41;97337.14;601673;236;67151;-69
2022/06/18 11:48:01;;;;;;;;;;;;;;;22.24;78.41;97334.47;601654;236;66873;-73
2022/06/18 11:50:30;;;;;;;;;;;;;;;22.23;78.38;97322.93;601672;236;62756;-74
2022/06/18 11:53:05;;;;;;;;;;;;;;;22.24;78.37;97327.23;601615;236;64961;-74
2022/06/18 11:55:34;;;;;;;;;;;;;;;22.24;78.33;97329.91;601577;236;67689;-74
2022/06/18 11:58:03;;;;;;;;;;;;;;;22.23;78.29;97320.25;601690;235;64901;-74
2022/06/18 12:00:35;;;;;;;;;;;;;;;22.24;78.28;97315.73;601683;236;65318;-74
2022/06/18 12:03:09;;;;;;;;;;;;;;;22.24;78.31;97324.55;600245;236;66967;-74
2022/06/18 12:05:38;;;;;;;;;;;;;;;22.24;78.23;97319.20;601350;236;64877;-74
2022/06/18 12:08:06;;;;;;;;;;;;;;;22.24;78.25;97319.20;601620;236;67260;-74
2022/06/18 12:10:38;;;;;;;;;;;;;;;22.23;78.29;97322.93;601647;236;64785;-74
2022/06/18 12:13:24;;;;;;;;;;;;;;;22.23;78.27;97312.22;601449;235;64880;-69
2022/06/18 12:16:05;;;;;;;;;;;;;;;22.24;78.28;97316.52;601731;236;67259;-69
2022/06/18 12:18:37;;;;;;;;;;;;;;;22.24;78.31;97321.88;604503;233;66878;-70
2022/06/18 12:21:12;;;;;;;;;;;;;;;22.25;78.27;97320.00;607926;233;64879;-70
2022/06/18 12:23:47;;;;;;;;;;;;;;;22.25;78.32;97326.15;607901;232;65865;-70
2022/06/18 12:26:22;;;;;;;;;;;;;;;22.25;78.27;97325.35;607914;233;67011;-69
2022/06/18 12:28:51;;;;;;;;;;;;;;;22.25;78.22;97330.70;607914;233;64865;-70
2022/06/18 12:31:20;;;;;;;;;;;;;;;22.25;78.22;97336.06;607891;233;67123;-70
2022/06/18 12:33:49;;;;;;;;;;;;;;;22.24;78.16;97332.59;607756;233;64824;-69
2022/06/18 12:36:21;;;;;;;;;;;;;;;22.25;78.17;97322.67;607882;233;62713;-69
2022/06/18 12:38:56;;;;;;;;;;;;;;;22.24;78.16;97324.55;607811;233;64966;-69
2022/06/18 12:41:40;;;;;;;;;;;;;;;22.26;78.14;97318.91;607869;232;64792;-69
2022/06/18 12:44:12;;;;;;;;;;;;;;;22.25;78.13;97320.80;607932;233;65167;-68
2022/06/18 12:46:41;;;;;;;;;;;;;;;22.25;78.14;97312.76;607941;233;67209;-69
2022/06/18 12:49:10;;;;;;;;;;;;;;;22.25;78.16;97318.11;607947;233;66658;-69
2022/06/18 12:51:52;;;;;;;;;;;;;;;22.24;78.17;97313.84;607876;233;65012;-69
2022/06/18 12:54:21;;;;;;;;;;;;;;;22.26;78.14;97306.35;607904;233;67118;-69
2022/06/18 12:57:07;;;;;;;;;;;;;;;22.24;78.12;97305.81;607914;233;67132;-69
2022/06/18 12:59:52;;;;;;;;;;;;;;;22.26;78.15;97309.03;607922;233;63638;-69
2022/06/18 13:02:38;;;;;;;;;;;;;;;22.26;78.20;97317.06;607955;233;67236;-69
2022/06/18 13:05:07;;;;;;;;;;;;;;;22.26;78.17;97306.35;607956;233;67008;-69
2022/06/18 13:07:39;;;;;;;;;;;;;;;22.26;78.20;97314.38;607908;233;65074;-71
2022/06/18 13:10:08;;;;;;;;;;;;;;;22.25;78.23;97307.41;607793;233;67104;-69
2022/06/18 13:12:41;;;;;;;;;;;;;;;22.25;78.21;97304.73;607902;233;66928;-69
2022/06/18 13:15:27;;;;;;;;;;;;;;;22.25;78.23;97298.58;607925;233;62723;-69
2022/06/18 13:17:53;;;;;;;;;;;;;;;22.27;78.16;97304.47;606635;233;64705;-69